sensor_id;sensor_type;location;lat;lon;timestamp;P1;durP1;ratioP1;P2;durP2;ratioP2
68214;SDS011;55036;52.138;5.236;2022-07-23T00:00:15;4.13;;;2.28;;
68214;SDS011;55036;52.138;5.236;2022-07-23T00:02:43;4.43;;;2.45;;
68214;SDS011;55036;52.138;5.236;2022-07-23T00:05:10;4.63;;;2.30;;
68214;SDS011;55036;52.138;5.236;2022-07-23T00:07:37;4.70;;;2.60;;
68214;SDS011;55036;52.138;5.236;2022-07-23T00:10:04;4.55;;;2.40;;
68214;SDS011;55036;52.138;5.236;2022-07-23T00:12:32;4.38;;;2.25;;
68214;SDS011;55036;52.138;5.236;2022-07-23T00:14:58;3.92;;;2.10;;
68214;SDS011;55036;52.138;5.236;2022-07-23T00:17:25;4.50;;;2.60;;
68214;SDS011;55036;52.138;5.236;2022-07-23T00:19:52;2.92;;;1.95;;
68214;SDS011;55036;52.138;5.236;2022-07-23T00:22:20;3.67;;;2.58;;
68214;SDS011;55036;52.138;5.236;2022-07-23T00:24:47;4.93;;;2.58;;
68214;SDS011;55036;52.138;5.236;2022-07-23T00:27:34;3.50;;;2.40;;
68214;SDS011;55036;52.138;5.236;2022-07-23T00:30:00;5.28;;;2.40;;
68214;SDS011;55036;52.138;5.236;2022-07-23T00:32:27;3.30;;;2.35;;
68214;SDS011;55036;52.138;5.236;2022-07-23T00:35:14;4.25;;;2.45;;
68214;SDS011;55036;52.138;5.236;2022-07-23T00:37:42;5.13;;;2.55;;
68214;SDS011;55036;52.138;5.236;2022-07-23T00:40:10;4.15;;;2.50;;
68214;SDS011;55036;52.138;5.236;2022-07-23T00:42:37;4.63;;;2.33;;
68214;SDS011;55036;52.138;5.236;2022-07-23T00:45:04;4.32;;;2.25;;
68214;SDS011;55036;52.138;5.236;2022-07-23T00:47:31;3.00;;;2.35;;
68214;SDS011;55036;52.138;5.236;2022-07-23T00:49:58;7.03;;;2.80;;
68214;SDS011;55036;52.138;5.236;2022-07-23T00:52:25;3.35;;;2.75;;
68214;SDS011;55036;52.138;5.236;2022-07-23T00:54:52;3.42;;;2.63;;
68214;SDS011;55036;52.138;5.236;2022-07-23T00:57:19;4.93;;;2.60;;
68214;SDS011;55036;52.138;5.236;2022-07-23T00:59:53;4.93;;;2.63;;
68214;SDS011;55036;52.138;5.236;2022-07-23T01:02:20;6.43;;;2.78;;
68214;SDS011;55036;52.138;5.236;2022-07-23T01:04:47;3.30;;;2.63;;
68214;SDS011;55036;52.138;5.236;2022-07-23T01:07:14;3.78;;;2.40;;
68214;SDS011;55036;52.138;5.236;2022-07-23T01:09:42;4.97;;;2.60;;
68214;SDS011;55036;52.138;5.236;2022-07-23T01:12:10;2.80;;;2.50;;
68214;SDS011;55036;52.138;5.236;2022-07-23T01:14:37;2.72;;;2.35;;
68214;SDS011;55036;52.138;5.236;2022-07-23T01:17:04;3.45;;;2.25;;
68214;SDS011;55036;52.138;5.236;2022-07-23T01:19:31;3.83;;;2.63;;
68214;SDS011;55036;52.138;5.236;2022-07-23T01:21:58;4.13;;;2.83;;
68214;SDS011;55036;52.138;5.236;2022-07-23T01:24:29;6.85;;;3.58;;
68214;SDS011;55036;52.138;5.236;2022-07-23T01:26:56;4.25;;;3.13;;
68214;SDS011;55036;52.138;5.236;2022-07-23T01:29:23;4.35;;;2.88;;
68214;SDS011;55036;52.138;5.236;2022-07-23T01:31:50;4.95;;;3.00;;
68214;SDS011;55036;52.138;5.236;2022-07-23T01:34:17;4.68;;;3.10;;
68214;SDS011;55036;52.138;5.236;2022-07-23T01:36:43;4.32;;;3.03;;
68214;SDS011;55036;52.138;5.236;2022-07-23T01:39:11;6.50;;;2.60;;
68214;SDS011;55036;52.138;5.236;2022-07-23T01:41:37;4.80;;;2.60;;
68214;SDS011;55036;52.138;5.236;2022-07-23T01:44:05;4.38;;;2.72;;
68214;SDS011;55036;52.138;5.236;2022-07-23T01:46:31;5.60;;;2.80;;
68214;SDS011;55036;52.138;5.236;2022-07-23T01:48:58;3.67;;;2.50;;
68214;SDS011;55036;52.138;5.236;2022-07-23T01:51:26;4.13;;;2.67;;
68214;SDS011;55036;52.138;5.236;2022-07-23T01:53:53;3.78;;;3.00;;
68214;SDS011;55036;52.138;5.236;2022-07-23T01:56:19;3.20;;;2.30;;
68214;SDS011;55036;52.138;5.236;2022-07-23T01:58:47;5.18;;;2.47;;
68214;SDS011;55036;52.138;5.236;2022-07-23T02:01:15;4.13;;;2.70;;
68214;SDS011;55036;52.138;5.236;2022-07-23T02:03:42;4.22;;;2.88;;
68214;SDS011;55036;52.138;5.236;2022-07-23T02:06:08;3.38;;;2.72;;
68214;SDS011;55036;52.138;5.236;2022-07-23T02:08:35;3.53;;;2.70;;
68214;SDS011;55036;52.138;5.236;2022-07-23T02:11:02;5.78;;;2.67;;
68214;SDS011;55036;52.138;5.236;2022-07-23T02:13:32;4.30;;;2.72;;
68214;SDS011;55036;52.138;5.236;2022-07-23T02:15:59;2.85;;;2.40;;
68214;SDS011;55036;52.138;5.236;2022-07-23T02:18:26;5.72;;;2.80;;
68214;SDS011;55036;52.138;5.236;2022-07-23T02:20:53;3.33;;;2.58;;
68214;SDS011;55036;52.138;5.236;2022-07-23T02:23:20;2.83;;;2.22;;
68214;SDS011;55036;52.138;5.236;2022-07-23T02:25:47;5.40;;;2.67;;
68214;SDS011;55036;52.138;5.236;2022-07-23T02:28:14;3.10;;;2.22;;
68214;SDS011;55036;52.138;5.236;2022-07-23T02:30:41;3.15;;;2.33;;
68214;SDS011;55036;52.138;5.236;2022-07-23T02:33:08;3.45;;;2.03;;
68214;SDS011;55036;52.138;5.236;2022-07-23T02:35:34;2.38;;;2.10;;
68214;SDS011;55036;52.138;5.236;2022-07-23T02:38:01;3.17;;;2.25;;
68214;SDS011;55036;52.138;5.236;2022-07-23T02:40:28;3.03;;;2.20;;
68214;SDS011;55036;52.138;5.236;2022-07-23T02:42:55;5.35;;;2.33;;
68214;SDS011;55036;52.138;5.236;2022-07-23T02:45:21;4.53;;;2.58;;
68214;SDS011;55036;52.138;5.236;2022-07-23T02:47:48;5.13;;;2.22;;
68214;SDS011;55036;52.138;5.236;2022-07-23T02:50:15;2.90;;;2.35;;
68214;SDS011;55036;52.138;5.236;2022-07-23T02:52:42;4.10;;;2.35;;
68214;SDS011;55036;52.138;5.236;2022-07-23T02:55:09;5.43;;;2.22;;
68214;SDS011;55036;52.138;5.236;2022-07-23T02:57:37;3.60;;;2.20;;
68214;SDS011;55036;52.138;5.236;2022-07-23T03:00:04;3.30;;;2.40;;
68214;SDS011;55036;52.138;5.236;2022-07-23T03:02:32;2.92;;;2.17;;
68214;SDS011;55036;52.138;5.236;2022-07-23T03:04:59;3.05;;;2.55;;
68214;SDS011;55036;52.138;5.236;2022-07-23T03:07:27;3.65;;;2.40;;
68214;SDS011;55036;52.138;5.236;2022-07-23T03:09:53;4.13;;;2.45;;
68214;SDS011;55036;52.138;5.236;2022-07-23T03:12:20;5.22;;;2.50;;
68214;SDS011;55036;52.138;5.236;2022-07-23T03:14:47;3.78;;;2.30;;
68214;SDS011;55036;52.138;5.236;2022-07-23T03:17:14;2.90;;;2.03;;
68214;SDS011;55036;52.138;5.236;2022-07-23T03:19:40;3.53;;;2.55;;
68214;SDS011;55036;52.138;5.236;2022-07-23T03:22:07;4.60;;;2.20;;
68214;SDS011;55036;52.138;5.236;2022-07-23T03:24:34;2.90;;;2.45;;
68214;SDS011;55036;52.138;5.236;2022-07-23T03:27:29;3.58;;;2.45;;
68214;SDS011;55036;52.138;5.236;2022-07-23T03:29:57;3.80;;;2.35;;
68214;SDS011;55036;52.138;5.236;2022-07-23T03:32:25;3.20;;;2.17;;
68214;SDS011;55036;52.138;5.236;2022-07-23T03:34:52;3.75;;;2.22;;
68214;SDS011;55036;52.138;5.236;2022-07-23T03:37:20;2.65;;;2.22;;
68214;SDS011;55036;52.138;5.236;2022-07-23T03:39:47;4.47;;;2.40;;
68214;SDS011;55036;52.138;5.236;2022-07-23T03:42:14;3.80;;;2.13;;
68214;SDS011;55036;52.138;5.236;2022-07-23T03:44:41;4.28;;;2.60;;
68214;SDS011;55036;52.138;5.236;2022-07-23T03:47:07;4.35;;;2.70;;
68214;SDS011;55036;52.138;5.236;2022-07-23T03:49:34;3.85;;;2.20;;
68214;SDS011;55036;52.138;5.236;2022-07-23T03:52:01;6.45;;;2.60;;
68214;SDS011;55036;52.138;5.236;2022-07-23T03:54:28;4.22;;;2.78;;
68214;SDS011;55036;52.138;5.236;2022-07-23T03:56:55;4.05;;;2.30;;
68214;SDS011;55036;52.138;5.236;2022-07-23T03:59:21;4.32;;;2.15;;
68214;SDS011;55036;52.138;5.236;2022-07-23T04:01:49;2.75;;;2.10;;
68214;SDS011;55036;52.138;5.236;2022-07-23T04:04:16;6.13;;;2.17;;
68214;SDS011;55036;52.138;5.236;2022-07-23T04:06:43;5.32;;;2.33;;
68214;SDS011;55036;52.138;5.236;2022-07-23T04:09:10;2.80;;;2.30;;
68214;SDS011;55036;52.138;5.236;2022-07-23T04:11:36;2.90;;;2.47;;
68214;SDS011;55036;52.138;5.236;2022-07-23T04:14:03;3.05;;;2.38;;
68214;SDS011;55036;52.138;5.236;2022-07-23T04:16:30;3.50;;;2.15;;
68214;SDS011;55036;52.138;5.236;2022-07-23T04:18:57;3.40;;;2.20;;
68214;SDS011;55036;52.138;5.236;2022-07-23T04:21:25;4.07;;;2.25;;
68214;SDS011;55036;52.138;5.236;2022-07-23T04:23:52;3.92;;;2.22;;
68214;SDS011;55036;52.138;5.236;2022-07-23T04:26:19;3.38;;;2.30;;
68214;SDS011;55036;52.138;5.236;2022-07-23T04:28:45;3.65;;;2.20;;
68214;SDS011;55036;52.138;5.236;2022-07-23T04:31:12;4.18;;;2.40;;
68214;SDS011;55036;52.138;5.236;2022-07-23T04:33:39;3.35;;;2.47;;
68214;SDS011;55036;52.138;5.236;2022-07-23T04:36:06;4.95;;;2.60;;
68214;SDS011;55036;52.138;5.236;2022-07-23T04:38:33;2.65;;;1.95;;
68214;SDS011;55036;52.138;5.236;2022-07-23T04:41:00;3.83;;;2.50;;
68214;SDS011;55036;52.138;5.236;2022-07-23T04:43:27;4.05;;;2.72;;
68214;SDS011;55036;52.138;5.236;2022-07-23T04:45:53;5.15;;;2.53;;
68214;SDS011;55036;52.138;5.236;2022-07-23T04:48:21;2.63;;;2.35;;
68214;SDS011;55036;52.138;5.236;2022-07-23T04:50:47;3.05;;;2.08;;
68214;SDS011;55036;52.138;5.236;2022-07-23T04:53:14;4.40;;;2.53;;
68214;SDS011;55036;52.138;5.236;2022-07-23T04:55:41;5.78;;;2.53;;
68214;SDS011;55036;52.138;5.236;2022-07-23T04:58:08;4.10;;;2.53;;
68214;SDS011;55036;52.138;5.236;2022-07-23T05:00:34;2.88;;;1.90;;
68214;SDS011;55036;52.138;5.236;2022-07-23T05:03:01;3.03;;;2.20;;
68214;SDS011;55036;52.138;5.236;2022-07-23T05:05:28;4.07;;;2.40;;
68214;SDS011;55036;52.138;5.236;2022-07-23T05:07:55;2.78;;;2.03;;
68214;SDS011;55036;52.138;5.236;2022-07-23T05:10:21;3.50;;;2.20;;
68214;SDS011;55036;52.138;5.236;2022-07-23T05:12:52;4.00;;;2.22;;
68214;SDS011;55036;52.138;5.236;2022-07-23T05:15:19;3.13;;;2.42;;
68214;SDS011;55036;52.138;5.236;2022-07-23T05:17:45;4.45;;;2.40;;
68214;SDS011;55036;52.138;5.236;2022-07-23T05:20:13;3.58;;;2.50;;
68214;SDS011;55036;52.138;5.236;2022-07-23T05:22:40;4.93;;;2.20;;
68214;SDS011;55036;52.138;5.236;2022-07-23T05:25:07;2.70;;;2.33;;
68214;SDS011;55036;52.138;5.236;2022-07-23T05:27:34;4.97;;;2.17;;
68214;SDS011;55036;52.138;5.236;2022-07-23T05:30:01;5.72;;;2.60;;
68214;SDS011;55036;52.138;5.236;2022-07-23T05:32:28;3.42;;;1.75;;
68214;SDS011;55036;52.138;5.236;2022-07-23T05:34:58;2.40;;;2.17;;
68214;SDS011;55036;52.138;5.236;2022-07-23T05:37:24;2.17;;;1.83;;
68214;SDS011;55036;52.138;5.236;2022-07-23T05:39:51;3.05;;;2.00;;
68214;SDS011;55036;52.138;5.236;2022-07-23T05:42:18;4.53;;;2.38;;
68214;SDS011;55036;52.138;5.236;2022-07-23T05:44:45;3.13;;;2.20;;
68214;SDS011;55036;52.138;5.236;2022-07-23T05:47:11;4.85;;;2.28;;
68214;SDS011;55036;52.138;5.236;2022-07-23T05:49:38;4.95;;;2.35;;
68214;SDS011;55036;52.138;5.236;2022-07-23T05:52:05;2.70;;;2.10;;
68214;SDS011;55036;52.138;5.236;2022-07-23T05:54:35;4.57;;;2.42;;
68214;SDS011;55036;52.138;5.236;2022-07-23T05:57:02;3.40;;;2.20;;
68214;SDS011;55036;52.138;5.236;2022-07-23T05:59:30;5.82;;;2.40;;
68214;SDS011;55036;52.138;5.236;2022-07-23T06:01:57;3.15;;;2.00;;
68214;SDS011;55036;52.138;5.236;2022-07-23T06:04:24;4.00;;;2.17;;
68214;SDS011;55036;52.138;5.236;2022-07-23T06:06:50;4.00;;;2.33;;
68214;SDS011;55036;52.138;5.236;2022-07-23T06:09:17;4.55;;;2.20;;
68214;SDS011;55036;52.138;5.236;2022-07-23T06:11:44;3.88;;;2.28;;
68214;SDS011;55036;52.138;5.236;2022-07-23T06:14:11;3.45;;;1.60;;
68214;SDS011;55036;52.138;5.236;2022-07-23T06:16:38;2.33;;;1.75;;
68214;SDS011;55036;52.138;5.236;2022-07-23T06:19:04;3.20;;;1.70;;
68214;SDS011;55036;52.138;5.236;2022-07-23T06:21:31;2.38;;;1.58;;
68214;SDS011;55036;52.138;5.236;2022-07-23T06:24:13;3.50;;;1.60;;
68214;SDS011;55036;52.138;5.236;2022-07-23T06:26:40;4.63;;;1.70;;
68214;SDS011;55036;52.138;5.236;2022-07-23T06:29:07;3.03;;;1.33;;
68214;SDS011;55036;52.138;5.236;2022-07-23T06:31:34;2.90;;;1.60;;
68214;SDS011;55036;52.138;5.236;2022-07-23T06:34:01;5.30;;;1.60;;
68214;SDS011;55036;52.138;5.236;2022-07-23T06:36:28;4.65;;;1.40;;
68214;SDS011;55036;52.138;5.236;2022-07-23T06:38:55;3.38;;;1.33;;
68214;SDS011;55036;52.138;5.236;2022-07-23T06:41:23;3.05;;;1.85;;
68214;SDS011;55036;52.138;5.236;2022-07-23T06:43:50;2.78;;;1.35;;
68214;SDS011;55036;52.138;5.236;2022-07-23T06:46:17;2.00;;;1.23;;
68214;SDS011;55036;52.138;5.236;2022-07-23T06:48:44;6.07;;;1.42;;
68214;SDS011;55036;52.138;5.236;2022-07-23T06:51:11;3.05;;;1.40;;
68214;SDS011;55036;52.138;5.236;2022-07-23T06:53:37;3.00;;;1.27;;
68214;SDS011;55036;52.138;5.236;2022-07-23T06:56:04;3.85;;;1.50;;
68214;SDS011;55036;52.138;5.236;2022-07-23T06:58:31;3.33;;;1.27;;
68214;SDS011;55036;52.138;5.236;2022-07-23T07:00:57;2.05;;;1.48;;
68214;SDS011;55036;52.138;5.236;2022-07-23T07:03:24;7.32;;;1.40;;
68214;SDS011;55036;52.138;5.236;2022-07-23T07:05:51;2.90;;;1.10;;
68214;SDS011;55036;52.138;5.236;2022-07-23T07:08:19;5.03;;;1.35;;
68214;SDS011;55036;52.138;5.236;2022-07-23T07:10:46;4.50;;;1.10;;
68214;SDS011;55036;52.138;5.236;2022-07-23T07:13:12;6.07;;;1.58;;
68214;SDS011;55036;52.138;5.236;2022-07-23T07:15:39;3.63;;;1.10;;
68214;SDS011;55036;52.138;5.236;2022-07-23T07:18:06;4.05;;;1.20;;
68214;SDS011;55036;52.138;5.236;2022-07-23T07:20:33;1.83;;;1.38;;
68214;SDS011;55036;52.138;5.236;2022-07-23T07:23:00;4.72;;;1.27;;
68214;SDS011;55036;52.138;5.236;2022-07-23T07:25:26;2.45;;;1.27;;
68214;SDS011;55036;52.138;5.236;2022-07-23T07:27:53;3.45;;;1.20;;
68214;SDS011;55036;52.138;5.236;2022-07-23T07:30:20;3.67;;;1.00;;
68214;SDS011;55036;52.138;5.236;2022-07-23T07:32:47;3.30;;;1.15;;
68214;SDS011;55036;52.138;5.236;2022-07-23T07:35:23;2.60;;;1.00;;
68214;SDS011;55036;52.138;5.236;2022-07-23T07:37:50;4.35;;;1.30;;
68214;SDS011;55036;52.138;5.236;2022-07-23T07:40:16;4.28;;;1.10;;
68214;SDS011;55036;52.138;5.236;2022-07-23T07:42:47;4.05;;;1.48;;
68214;SDS011;55036;52.138;5.236;2022-07-23T07:45:15;4.00;;;1.05;;
68214;SDS011;55036;52.138;5.236;2022-07-23T07:47:43;3.33;;;1.50;;
68214;SDS011;55036;52.138;5.236;2022-07-23T07:50:10;4.10;;;1.15;;
68214;SDS011;55036;52.138;5.236;2022-07-23T07:52:37;3.03;;;1.33;;
68214;SDS011;55036;52.138;5.236;2022-07-23T07:55:05;2.75;;;1.30;;
68214;SDS011;55036;52.138;5.236;2022-07-23T07:57:34;3.13;;;1.17;;
68214;SDS011;55036;52.138;5.236;2022-07-23T08:00:03;4.80;;;1.42;;
68214;SDS011;55036;52.138;5.236;2022-07-23T08:02:54;2.92;;;1.17;;
68214;SDS011;55036;52.138;5.236;2022-07-23T08:05:25;2.50;;;1.08;;
68214;SDS011;55036;52.138;5.236;2022-07-23T08:07:55;4.57;;;1.30;;
68214;SDS011;55036;52.138;5.236;2022-07-23T08:10:23;4.15;;;1.05;;
68214;SDS011;55036;52.138;5.236;2022-07-23T08:12:51;2.65;;;1.52;;
68214;SDS011;55036;52.138;5.236;2022-07-23T08:15:21;2.92;;;1.02;;
68214;SDS011;55036;52.138;5.236;2022-07-23T08:17:48;1.92;;;1.20;;
68214;SDS011;55036;52.138;5.236;2022-07-23T08:20:17;1.77;;;0.98;;
68214;SDS011;55036;52.138;5.236;2022-07-23T08:25:26;2.13;;;1.08;;
68214;SDS011;55036;52.138;5.236;2022-07-23T08:27:58;2.35;;;0.88;;
68214;SDS011;55036;52.138;5.236;2022-07-23T08:30:27;3.35;;;1.15;;
68214;SDS011;55036;52.138;5.236;2022-07-23T08:32:58;1.98;;;1.00;;
68214;SDS011;55036;52.138;5.236;2022-07-23T08:37:55;1.35;;;0.90;;
68214;SDS011;55036;52.138;5.236;2022-07-23T08:40:25;2.42;;;1.33;;
68214;SDS011;55036;52.138;5.236;2022-07-23T08:42:53;1.98;;;1.15;;
68214;SDS011;55036;52.138;5.236;2022-07-23T08:45:21;1.73;;;0.93;;
68214;SDS011;55036;52.138;5.236;2022-07-23T08:47:52;1.77;;;1.00;;
68214;SDS011;55036;52.138;5.236;2022-07-23T08:50:21;1.52;;;0.98;;
68214;SDS011;55036;52.138;5.236;2022-07-23T08:52:49;0.98;;;0.80;;
68214;SDS011;55036;52.138;5.236;2022-07-23T08:55:18;1.60;;;0.95;;
68214;SDS011;55036;52.138;5.236;2022-07-23T08:57:47;1.92;;;1.30;;
68214;SDS011;55036;52.138;5.236;2022-07-23T09:00:15;3.53;;;1.10;;
68214;SDS011;55036;52.138;5.236;2022-07-23T09:02:43;3.03;;;1.00;;
68214;SDS011;55036;52.138;5.236;2022-07-23T09:05:12;2.28;;;0.88;;
68214;SDS011;55036;52.138;5.236;2022-07-23T09:10:42;3.78;;;1.02;;
68214;SDS011;55036;52.138;5.236;2022-07-23T09:18:41;0.85;;;0.70;;
68214;SDS011;55036;52.138;5.236;2022-07-23T09:21:14;2.63;;;1.45;;
68214;SDS011;55036;52.138;5.236;2022-07-23T09:23:46;4.20;;;1.00;;
68214;SDS011;55036;52.138;5.236;2022-07-23T09:26:35;2.53;;;1.00;;
68214;SDS011;55036;52.138;5.236;2022-07-23T09:31:35;3.28;;;1.10;;
68214;SDS011;55036;52.138;5.236;2022-07-23T09:36:38;2.47;;;0.90;;
68214;SDS011;55036;52.138;5.236;2022-07-23T09:39:06;3.38;;;1.10;;
68214;SDS011;55036;52.138;5.236;2022-07-23T09:41:38;1.30;;;1.02;;
68214;SDS011;55036;52.138;5.236;2022-07-23T09:44:07;1.13;;;0.95;;
68214;SDS011;55036;52.138;5.236;2022-07-23T09:46:35;1.75;;;1.13;;
68214;SDS011;55036;52.138;5.236;2022-07-23T09:49:09;2.58;;;1.05;;
68214;SDS011;55036;52.138;5.236;2022-07-23T09:51:45;2.78;;;1.42;;
68214;SDS011;55036;52.138;5.236;2022-07-23T09:57:00;2.03;;;1.25;;
68214;SDS011;55036;52.138;5.236;2022-07-23T09:59:31;1.42;;;0.85;;
68214;SDS011;55036;52.138;5.236;2022-07-23T10:02:01;1.15;;;0.88;;
68214;SDS011;55036;52.138;5.236;2022-07-23T10:04:29;2.13;;;0.90;;
68214;SDS011;55036;52.138;5.236;2022-07-23T10:06:57;2.55;;;1.10;;
68214;SDS011;55036;52.138;5.236;2022-07-23T10:09:30;1.88;;;0.88;;
68214;SDS011;55036;52.138;5.236;2022-07-23T10:12:09;1.70;;;0.85;;
68214;SDS011;55036;52.138;5.236;2022-07-23T10:14:40;1.75;;;0.98;;
68214;SDS011;55036;52.138;5.236;2022-07-23T10:17:08;3.53;;;1.00;;
68214;SDS011;55036;52.138;5.236;2022-07-23T10:19:35;2.90;;;1.17;;
68214;SDS011;55036;52.138;5.236;2022-07-23T10:22:03;2.55;;;0.80;;
68214;SDS011;55036;52.138;5.236;2022-07-23T10:29:55;1.65;;;1.00;;
68214;SDS011;55036;52.138;5.236;2022-07-23T10:37:54;1.25;;;0.73;;
68214;SDS011;55036;52.138;5.236;2022-07-23T10:40:28;2.25;;;1.20;;
68214;SDS011;55036;52.138;5.236;2022-07-23T10:42:58;3.10;;;1.02;;
68214;SDS011;55036;52.138;5.236;2022-07-23T10:45:28;1.52;;;1.10;;
68214;SDS011;55036;52.138;5.236;2022-07-23T10:48:20;3.03;;;1.33;;
68214;SDS011;55036;52.138;5.236;2022-07-23T10:51:09;1.70;;;1.10;;
68214;SDS011;55036;52.138;5.236;2022-07-23T10:59:25;2.65;;;1.20;;
68214;SDS011;55036;52.138;5.236;2022-07-23T11:01:51;2.85;;;1.48;;
68214;SDS011;55036;52.138;5.236;2022-07-23T11:04:18;2.72;;;1.05;;
68214;SDS011;55036;52.138;5.236;2022-07-23T11:09:27;1.10;;;1.00;;
68214;SDS011;55036;52.138;5.236;2022-07-23T11:17:28;1.55;;;1.00;;
68214;SDS011;55036;52.138;5.236;2022-07-23T11:20:17;1.77;;;1.60;;
68214;SDS011;55036;52.138;5.236;2022-07-23T11:22:47;2.22;;;1.40;;
68214;SDS011;55036;52.138;5.236;2022-07-23T11:27:49;2.63;;;1.10;;
68214;SDS011;55036;52.138;5.236;2022-07-23T11:32:54;3.90;;;1.40;;
68214;SDS011;55036;52.138;5.236;2022-07-23T11:35:45;2.30;;;1.25;;
68214;SDS011;55036;52.138;5.236;2022-07-23T11:38:15;4.68;;;1.30;;
68214;SDS011;55036;52.138;5.236;2022-07-23T11:40:49;2.40;;;1.10;;
68214;SDS011;55036;52.138;5.236;2022-07-23T11:43:17;2.42;;;1.15;;
68214;SDS011;55036;52.138;5.236;2022-07-23T11:45:46;1.92;;;1.13;;
68214;SDS011;55036;52.138;5.236;2022-07-23T11:48:25;2.40;;;1.58;;
68214;SDS011;55036;52.138;5.236;2022-07-23T11:50:53;5.55;;;1.55;;
68214;SDS011;55036;52.138;5.236;2022-07-23T11:53:26;3.08;;;1.40;;
68214;SDS011;55036;52.138;5.236;2022-07-23T11:56:07;2.30;;;1.35;;
68214;SDS011;55036;52.138;5.236;2022-07-23T11:58:36;3.03;;;1.50;;
68214;SDS011;55036;52.138;5.236;2022-07-23T12:01:05;2.28;;;1.40;;
68214;SDS011;55036;52.138;5.236;2022-07-23T12:03:48;3.30;;;1.73;;
68214;SDS011;55036;52.138;5.236;2022-07-23T12:06:16;2.35;;;1.55;;
68214;SDS011;55036;52.138;5.236;2022-07-23T12:08:42;2.90;;;1.52;;
68214;SDS011;55036;52.138;5.236;2022-07-23T12:11:11;3.72;;;1.60;;
68214;SDS011;55036;52.138;5.236;2022-07-23T12:13:38;2.70;;;1.35;;
68214;SDS011;55036;52.138;5.236;2022-07-23T12:16:06;2.08;;;1.30;;
68214;SDS011;55036;52.138;5.236;2022-07-23T12:18:34;1.80;;;1.40;;
68214;SDS011;55036;52.138;5.236;2022-07-23T12:21:03;2.17;;;1.67;;
68214;SDS011;55036;52.138;5.236;2022-07-23T12:23:31;1.55;;;1.38;;
68214;SDS011;55036;52.138;5.236;2022-07-23T12:26:00;1.90;;;1.55;;
68214;SDS011;55036;52.138;5.236;2022-07-23T12:28:29;3.13;;;1.93;;
68214;SDS011;55036;52.138;5.236;2022-07-23T12:30:59;1.80;;;1.33;;
68214;SDS011;55036;52.138;5.236;2022-07-23T12:33:30;2.45;;;1.73;;
68214;SDS011;55036;52.138;5.236;2022-07-23T12:36:03;3.95;;;1.42;;
68214;SDS011;55036;52.138;5.236;2022-07-23T12:38:41;2.75;;;1.60;;
68214;SDS011;55036;52.138;5.236;2022-07-23T12:41:10;2.78;;;1.90;;
68214;SDS011;55036;52.138;5.236;2022-07-23T12:43:38;2.25;;;1.80;;
68214;SDS011;55036;52.138;5.236;2022-07-23T12:46:07;1.80;;;1.65;;
68214;SDS011;55036;52.138;5.236;2022-07-23T12:48:39;2.90;;;2.00;;
68214;SDS011;55036;52.138;5.236;2022-07-23T12:51:21;2.85;;;1.90;;
68214;SDS011;55036;52.138;5.236;2022-07-23T12:53:57;3.63;;;1.83;;
68214;SDS011;55036;52.138;5.236;2022-07-23T12:56:34;2.95;;;2.00;;
68214;SDS011;55036;52.138;5.236;2022-07-23T12:59:06;3.20;;;1.77;;
68214;SDS011;55036;52.138;5.236;2022-07-23T13:01:37;2.33;;;1.83;;
68214;SDS011;55036;52.138;5.236;2022-07-23T13:04:25;2.90;;;1.65;;
68214;SDS011;55036;52.138;5.236;2022-07-23T13:06:54;4.38;;;2.33;;
68214;SDS011;55036;52.138;5.236;2022-07-23T13:09:27;2.78;;;1.90;;
68214;SDS011;55036;52.138;5.236;2022-07-23T13:11:58;3.03;;;2.03;;
68214;SDS011;55036;52.138;5.236;2022-07-23T13:14:26;2.22;;;2.00;;
68214;SDS011;55036;52.138;5.236;2022-07-23T13:16:53;3.60;;;2.38;;
68214;SDS011;55036;52.138;5.236;2022-07-23T13:19:22;2.08;;;1.70;;
68214;SDS011;55036;52.138;5.236;2022-07-23T13:21:52;2.38;;;1.85;;
68214;SDS011;55036;52.138;5.236;2022-07-23T13:24:19;2.22;;;1.60;;
68214;SDS011;55036;52.138;5.236;2022-07-23T13:26:46;3.78;;;1.85;;
68214;SDS011;55036;52.138;5.236;2022-07-23T13:29:16;3.50;;;1.90;;
68214;SDS011;55036;52.138;5.236;2022-07-23T13:31:45;2.90;;;2.10;;
68214;SDS011;55036;52.138;5.236;2022-07-23T13:34:12;3.08;;;1.85;;
68214;SDS011;55036;52.138;5.236;2022-07-23T13:36:39;4.70;;;2.00;;
68214;SDS011;55036;52.138;5.236;2022-07-23T13:39:06;2.92;;;1.67;;
68214;SDS011;55036;52.138;5.236;2022-07-23T13:41:35;2.65;;;1.75;;
68214;SDS011;55036;52.138;5.236;2022-07-23T13:44:04;4.63;;;2.00;;
68214;SDS011;55036;52.138;5.236;2022-07-23T13:46:32;3.15;;;1.60;;
68214;SDS011;55036;52.138;5.236;2022-07-23T13:49:00;3.80;;;1.90;;
68214;SDS011;55036;52.138;5.236;2022-07-23T13:51:27;3.13;;;1.75;;
68214;SDS011;55036;52.138;5.236;2022-07-23T13:53:54;2.30;;;1.77;;
68214;SDS011;55036;52.138;5.236;2022-07-23T13:56:21;2.45;;;1.73;;
68214;SDS011;55036;52.138;5.236;2022-07-23T13:58:48;5.53;;;2.03;;
68214;SDS011;55036;52.138;5.236;2022-07-23T14:01:15;2.05;;;1.70;;
68214;SDS011;55036;52.138;5.236;2022-07-23T14:03:43;4.13;;;1.85;;
68214;SDS011;55036;52.138;5.236;2022-07-23T14:06:10;4.85;;;2.42;;
68214;SDS011;55036;52.138;5.236;2022-07-23T14:08:41;2.53;;;1.90;;
68214;SDS011;55036;52.138;5.236;2022-07-23T14:11:13;3.30;;;2.05;;
68214;SDS011;55036;52.138;5.236;2022-07-23T14:13:39;2.80;;;1.63;;
68214;SDS011;55036;52.138;5.236;2022-07-23T14:16:07;3.42;;;1.98;;
68214;SDS011;55036;52.138;5.236;2022-07-23T14:18:34;3.15;;;1.92;;
68214;SDS011;55036;52.138;5.236;2022-07-23T14:21:01;3.63;;;1.75;;
68214;SDS011;55036;52.138;5.236;2022-07-23T14:23:28;3.25;;;1.75;;
68214;SDS011;55036;52.138;5.236;2022-07-23T14:25:56;4.13;;;1.67;;
68214;SDS011;55036;52.138;5.236;2022-07-23T14:28:23;3.13;;;1.90;;
68214;SDS011;55036;52.138;5.236;2022-07-23T14:30:50;2.55;;;1.70;;
68214;SDS011;55036;52.138;5.236;2022-07-23T14:33:16;3.17;;;1.98;;
68214;SDS011;55036;52.138;5.236;2022-07-23T14:35:44;4.18;;;1.70;;
68214;SDS011;55036;52.138;5.236;2022-07-23T14:38:11;3.47;;;1.85;;
68214;SDS011;55036;52.138;5.236;2022-07-23T14:40:39;3.30;;;1.73;;
68214;SDS011;55036;52.138;5.236;2022-07-23T14:43:06;4.10;;;1.88;;
68214;SDS011;55036;52.138;5.236;2022-07-23T14:45:36;2.97;;;1.90;;
68214;SDS011;55036;52.138;5.236;2022-07-23T14:48:03;4.03;;;1.95;;
68214;SDS011;55036;52.138;5.236;2022-07-23T14:50:30;3.08;;;1.92;;
68214;SDS011;55036;52.138;5.236;2022-07-23T14:52:57;3.60;;;2.00;;
68214;SDS011;55036;52.138;5.236;2022-07-23T14:55:24;3.13;;;1.92;;
68214;SDS011;55036;52.138;5.236;2022-07-23T14:57:51;2.40;;;2.20;;
68214;SDS011;55036;52.138;5.236;2022-07-23T15:00:18;2.42;;;2.05;;
68214;SDS011;55036;52.138;5.236;2022-07-23T15:02:49;2.30;;;1.67;;
68214;SDS011;55036;52.138;5.236;2022-07-23T15:05:20;4.72;;;2.10;;
68214;SDS011;55036;52.138;5.236;2022-07-23T15:07:47;3.85;;;2.35;;
68214;SDS011;55036;52.138;5.236;2022-07-23T15:10:14;3.17;;;1.80;;
68214;SDS011;55036;52.138;5.236;2022-07-23T15:12:45;2.92;;;1.92;;
68214;SDS011;55036;52.138;5.236;2022-07-23T15:15:12;4.63;;;2.28;;
68214;SDS011;55036;52.138;5.236;2022-07-23T15:17:39;3.17;;;2.17;;
68214;SDS011;55036;52.138;5.236;2022-07-23T15:20:06;3.65;;;1.90;;
68214;SDS011;55036;52.138;5.236;2022-07-23T15:22:34;2.95;;;2.00;;
68214;SDS011;55036;52.138;5.236;2022-07-23T15:25:01;3.13;;;1.83;;
68214;SDS011;55036;52.138;5.236;2022-07-23T15:27:28;3.33;;;1.90;;
68214;SDS011;55036;52.138;5.236;2022-07-23T15:29:56;3.70;;;2.40;;
68214;SDS011;55036;52.138;5.236;2022-07-23T15:32:23;4.45;;;2.55;;
68214;SDS011;55036;52.138;5.236;2022-07-23T15:34:53;3.72;;;2.53;;
68214;SDS011;55036;52.138;5.236;2022-07-23T15:37:20;4.50;;;2.10;;
68214;SDS011;55036;52.138;5.236;2022-07-23T15:39:50;4.90;;;2.20;;
68214;SDS011;55036;52.138;5.236;2022-07-23T15:42:18;3.45;;;2.28;;
68214;SDS011;55036;52.138;5.236;2022-07-23T15:44:45;5.68;;;2.60;;
68214;SDS011;55036;52.138;5.236;2022-07-23T15:47:14;4.15;;;2.22;;